Chacon, New Mexico
Current Conditions -  °F | °C
As of 8:35 AM on Monday 22 Dec 2014 (Local Time) from KAXX Reporting Station
Broken Clouds Broken Clouds  
Wind Chill: 21°   Ceiling: 1800
Heat Index: 33°   Visibility: 7mi
Dew Point: 28°   Wind: 21mph
Humidity: 81%   Direction: 260°W
Pressure: 29.79"   Gusts: 26mph
Location:  36.14°N, 105.37°W
Report Text: KAXX 221535Z AUTO 26018G23KT 7SM BKN018 BKN025 00/M02 A2979 RMK AO2 T00041025
Loading
Personal Weather Stations






























Interactive Weather Map New forecast layout! Learn more

10-Day Weather Forecast

Advertisements
Track Severe Weather on mobile